createdAt,value
2022-11-21T00:01:19.511Z,1.77
2022-11-21T00:03:46.196Z,1.90
2022-11-21T00:06:13.079Z,1.85
2022-11-21T00:08:39.639Z,1.50
2022-11-21T00:11:06.108Z,1.88
2022-11-21T00:13:32.573Z,1.40
2022-11-21T00:16:06.723Z,2.00
2022-11-21T00:18:34.693Z,1.88
2022-11-21T00:21:10.175Z,1.17
2022-11-21T00:23:36.588Z,1.60
2022-11-21T00:26:11.190Z,1.50
2022-11-21T00:28:37.859Z,1.40
2022-11-21T00:31:05.292Z,1.20
2022-11-21T00:33:32.113Z,1.20
2022-11-21T00:35:58.604Z,1.40
2022-11-21T00:38:25.020Z,1.38
2022-11-21T00:40:51.495Z,1.13
2022-11-21T00:43:17.900Z,1.10
2022-11-21T00:45:44.357Z,1.30
2022-11-21T00:48:10.778Z,1.05
2022-11-21T00:50:37.271Z,1.23
2022-11-21T00:53:03.679Z,0.93
2022-11-21T00:55:30.079Z,0.95
2022-11-21T00:57:56.519Z,0.90
2022-11-21T01:00:23.076Z,1.23
2022-11-21T01:02:49.596Z,1.02
2022-11-21T01:05:16.134Z,1.05
2022-11-21T01:07:42.598Z,0.80
2022-11-21T01:10:09.147Z,1.00
2022-11-21T01:12:35.610Z,1.42
2022-11-21T01:15:02.056Z,0.90
2022-11-21T01:17:28.486Z,1.02
2022-11-21T01:19:55.012Z,1.00
2022-11-21T01:22:21.428Z,0.95
2022-11-21T01:24:50.470Z,1.20
2022-11-21T01:27:16.895Z,0.93
2022-11-21T01:29:45.830Z,1.67
2022-11-21T01:32:12.228Z,1.00
2022-11-21T01:34:40.914Z,1.10
2022-11-21T01:37:07.396Z,1.10
2022-11-21T01:39:36.175Z,0.80
2022-11-21T01:42:02.907Z,1.17
2022-11-21T01:44:54.088Z,1.02
2022-11-21T01:47:22.610Z,1.05
2022-11-21T01:49:51.775Z,0.85
2022-11-21T01:52:31.332Z,1.00
2022-11-21T01:55:05.960Z,1.10
2022-11-21T01:57:48.437Z,0.90
2022-11-21T02:00:23.744Z,0.90
2022-11-21T02:02:56.099Z,0.90
2022-11-21T02:05:26.680Z,1.00
2022-11-21T02:07:57.326Z,0.70
2022-11-21T02:10:24.097Z,0.73
2022-11-21T02:12:55.383Z,0.70
2022-11-21T02:15:24.621Z,0.70
2022-11-21T02:17:51.157Z,0.80
2022-11-21T02:20:23.121Z,0.80
2022-11-21T02:23:19.575Z,0.80
2022-11-21T02:25:46.165Z,0.75
2022-11-21T02:28:15.951Z,0.90
2022-11-21T02:30:43.745Z,0.95
2022-11-21T02:33:11.236Z,0.80
2022-11-21T02:35:38.049Z,1.10
2022-11-21T02:38:22.542Z,0.90
2022-11-21T02:40:55.087Z,0.95
2022-11-21T02:43:31.971Z,0.85
2022-11-21T02:45:59.085Z,1.02
2022-11-21T02:48:25.569Z,1.00
2022-11-21T02:50:52.027Z,0.90
2022-11-21T02:53:19.450Z,0.88
2022-11-21T02:55:48.242Z,1.10
2022-11-21T02:58:17.501Z,0.95
2022-11-21T03:00:44.100Z,0.82
2022-11-21T03:03:10.644Z,0.80
2022-11-21T03:05:39.031Z,1.10
2022-11-21T03:08:05.897Z,1.02
2022-11-21T03:10:32.723Z,1.00
2022-11-21T03:13:02.488Z,0.90
2022-11-21T03:15:31.718Z,0.80
2022-11-21T03:17:58.495Z,1.00
2022-11-21T03:20:25.020Z,1.00
2022-11-21T03:22:53.420Z,1.00
2022-11-21T03:25:20.299Z,0.90
2022-11-21T03:27:46.724Z,1.10
2022-11-21T03:30:13.660Z,1.00
2022-11-21T03:32:40.074Z,1.30
2022-11-21T03:35:06.775Z,1.10
2022-11-21T03:37:33.394Z,1.33
2022-11-21T03:40:02.417Z,0.90
2022-11-21T03:42:28.828Z,1.05
2022-11-21T03:44:55.275Z,0.80
2022-11-21T03:47:22.682Z,1.05
2022-11-21T03:49:49.063Z,1.30
2022-11-21T03:52:15.497Z,1.30
2022-11-21T03:54:41.900Z,1.30
2022-11-21T03:57:10.752Z,1.00
2022-11-21T03:59:37.149Z,1.10
2022-11-21T04:02:03.580Z,1.20
2022-11-21T04:04:30.375Z,1.10
2022-11-21T04:06:56.978Z,1.10
2022-11-21T04:09:23.427Z,1.00
2022-11-21T04:11:49.864Z,1.00
2022-11-21T04:14:16.901Z,0.90
2022-11-21T04:16:43.604Z,1.00
2022-11-21T04:19:10.006Z,0.90
2022-11-21T04:21:36.562Z,0.70
2022-11-21T04:24:03.045Z,1.15
2022-11-21T04:26:29.488Z,1.10
2022-11-21T04:28:55.933Z,0.80
2022-11-21T04:31:22.340Z,0.70
2022-11-21T04:33:48.745Z,0.60
2022-11-21T04:36:15.222Z,0.57
2022-11-21T04:38:41.618Z,0.70
2022-11-21T04:41:08.023Z,0.60
2022-11-21T04:43:34.519Z,0.60
2022-11-21T04:46:01.047Z,0.73
2022-11-21T04:48:27.483Z,0.80
2022-11-21T04:50:53.930Z,0.80
2022-11-21T04:53:20.405Z,2.00
2022-11-21T04:55:46.881Z,3.22
2022-11-21T04:58:14.020Z,4.50
2022-11-21T05:00:40.463Z,4.40
2022-11-21T05:03:07.863Z,5.60
2022-11-21T05:05:34.323Z,3.28
2022-11-21T05:08:00.743Z,2.95
2022-11-21T05:10:27.482Z,2.53
2022-11-21T05:13:19.237Z,1.88
2022-11-21T05:15:46.284Z,1.45
2022-11-21T05:18:13.287Z,1.30
2022-11-21T05:20:39.761Z,1.60
2022-11-21T05:23:06.278Z,1.30
2022-11-21T05:25:32.746Z,1.20
2022-11-21T05:28:01.364Z,1.15
2022-11-21T05:30:30.215Z,1.20
2022-11-21T05:32:56.741Z,1.15
2022-11-21T05:35:23.378Z,1.80
2022-11-21T05:37:55.962Z,1.73
2022-11-21T05:40:25.382Z,1.60
2022-11-21T05:43:10.599Z,1.73
2022-11-21T05:45:37.073Z,2.42
2022-11-21T05:48:07.713Z,2.10
2022-11-21T05:50:35.987Z,1.98
2022-11-21T05:53:05.781Z,1.85
2022-11-21T05:55:36.605Z,2.58
2022-11-21T05:58:03.111Z,1.27
2022-11-21T06:00:29.663Z,1.20
2022-11-21T06:03:14.880Z,1.00
2022-11-21T06:05:41.500Z,0.93
2022-11-21T06:08:08.002Z,0.90
2022-11-21T06:10:34.445Z,0.90
2022-11-21T06:13:01.571Z,0.90
2022-11-21T06:15:29.092Z,0.93
2022-11-21T06:17:55.539Z,0.90
2022-11-21T06:20:21.989Z,1.02
2022-11-21T06:22:48.388Z,1.10
2022-11-21T06:25:14.880Z,0.90
2022-11-21T06:27:41.304Z,0.73
2022-11-21T06:30:08.431Z,0.80
2022-11-21T06:32:38.194Z,0.90
2022-11-21T06:35:05.171Z,0.80
2022-11-21T06:37:31.651Z,0.90
2022-11-21T06:39:58.526Z,1.35
2022-11-21T06:42:26.957Z,1.10
2022-11-21T06:44:53.419Z,1.10
2022-11-21T06:47:20.234Z,1.00
2022-11-21T06:49:46.652Z,1.05
2022-11-21T06:52:13.140Z,1.30
2022-11-21T06:54:39.541Z,1.00
2022-11-21T06:57:06.004Z,1.10
2022-11-21T06:59:32.469Z,1.00
2022-11-21T07:01:59.127Z,0.88
2022-11-21T07:04:25.810Z,0.80
2022-11-21T07:06:52.523Z,0.90
2022-11-21T07:09:36.414Z,0.90
2022-11-21T07:12:24.493Z,0.90
2022-11-21T07:14:53.857Z,0.90
2022-11-21T07:17:20.363Z,1.30
2022-11-21T07:19:46.828Z,1.13
2022-11-21T07:22:13.251Z,1.10
2022-11-21T07:24:39.683Z,1.00
2022-11-21T07:27:06.095Z,0.90
2022-11-21T07:29:32.568Z,1.13
2022-11-21T07:31:58.998Z,1.48
2022-11-21T07:34:25.482Z,1.60
2022-11-21T07:36:54.175Z,2.05
2022-11-21T07:39:20.660Z,2.38
2022-11-21T07:41:47.082Z,1.92
2022-11-21T07:44:13.725Z,1.65
2022-11-21T07:46:40.137Z,1.73
2022-11-21T07:49:06.930Z,3.13
2022-11-21T07:51:33.417Z,3.40
2022-11-21T07:53:59.830Z,3.90
2022-11-21T07:56:28.485Z,4.20
2022-11-21T07:58:54.879Z,4.90
2022-11-21T08:01:21.422Z,3.30
2022-11-21T08:03:47.984Z,3.42
2022-11-21T08:06:14.537Z,2.17
2022-11-21T08:08:41.043Z,1.60
2022-11-21T08:11:10.366Z,1.30
2022-11-21T08:13:36.865Z,1.38
2022-11-21T08:16:06.619Z,1.20
2022-11-21T08:18:35.437Z,1.20
2022-11-21T08:21:03.431Z,1.30
2022-11-21T08:23:30.494Z,1.40
2022-11-21T08:25:59.448Z,1.10
2022-11-21T08:28:26.026Z,1.17
2022-11-21T08:30:52.573Z,1.05
2022-11-21T08:33:19.007Z,1.30
2022-11-21T08:35:45.512Z,2.05
2022-11-21T08:38:12.009Z,1.20
2022-11-21T08:40:40.163Z,1.52
2022-11-21T08:43:09.075Z,1.42
2022-11-21T08:45:37.298Z,1.80
2022-11-21T08:48:08.938Z,1.75
2022-11-21T08:50:35.373Z,2.80
2022-11-21T08:53:02.415Z,1.58
2022-11-21T08:55:29.819Z,1.98
2022-11-21T08:57:58.775Z,31.15
2022-11-21T09:00:28.171Z,8.75
2022-11-21T09:02:54.663Z,5.15
2022-11-21T09:05:21.239Z,2.40
2022-11-21T09:07:48.407Z,2.63
2022-11-21T09:10:15.377Z,1.45
2022-11-21T09:12:41.824Z,2.05
2022-11-21T09:15:30.099Z,0.93
2022-11-21T09:18:03.964Z,1.00
2022-11-21T09:20:38.528Z,0.90
2022-11-21T09:23:09.866Z,0.82
2022-11-21T09:25:36.580Z,0.82
2022-11-21T09:28:04.990Z,0.90
2022-11-21T09:30:31.489Z,1.00
2022-11-21T09:33:02.146Z,1.80
2022-11-21T09:35:29.326Z,0.60
2022-11-21T09:37:55.899Z,1.10
2022-11-21T09:40:25.188Z,0.85
2022-11-21T09:43:02.858Z,0.93
2022-11-21T09:45:44.718Z,0.73
2022-11-21T09:48:40.405Z,0.70
2022-11-21T09:51:13.607Z,0.60
2022-11-21T09:53:49.664Z,0.60
2022-11-21T09:56:23.257Z,1.13
2022-11-21T09:59:11.351Z,0.90
2022-11-21T10:01:38.754Z,0.90
2022-11-21T10:04:05.512Z,0.80
2022-11-21T10:06:38.974Z,0.60
2022-11-21T10:09:20.518Z,0.80
2022-11-21T10:12:38.120Z,0.90
2022-11-21T10:15:22.890Z,0.95
2022-11-21T10:18:07.650Z,1.10
2022-11-21T10:20:58.741Z,0.65
2022-11-21T10:23:43.365Z,0.80
2022-11-21T10:26:15.691Z,1.10
2022-11-21T10:28:57.178Z,1.10
2022-11-21T10:31:24.753Z,0.68
2022-11-21T10:33:53.194Z,1.55
2022-11-21T10:36:28.928Z,1.00
2022-11-21T10:39:12.717Z,0.65
2022-11-21T10:42:24.769Z,0.90
2022-11-21T10:45:10.624Z,0.82
2022-11-21T10:47:39.914Z,1.00
2022-11-21T10:50:09.389Z,0.98
2022-11-21T10:53:23.954Z,0.70
2022-11-21T10:56:06.528Z,0.80
2022-11-21T10:58:42.736Z,0.57
2022-11-21T11:01:31.826Z,0.80
2022-11-21T11:04:27.426Z,0.70
2022-11-21T11:06:59.838Z,0.98
2022-11-21T11:09:33.995Z,1.33
2022-11-21T11:17:17.276Z,0.60
2022-11-21T11:20:05.412Z,1.10
2022-11-21T11:22:32.691Z,0.90
2022-11-21T11:25:02.682Z,1.10
2022-11-21T11:27:29.853Z,0.80
2022-11-21T11:29:56.345Z,0.75
2022-11-21T11:32:23.492Z,0.70
2022-11-21T11:35:00.853Z,0.82
2022-11-21T11:37:41.851Z,1.67
2022-11-21T11:40:17.597Z,0.80
2022-11-21T11:43:31.677Z,0.90
2022-11-21T11:46:33.240Z,0.90
2022-11-21T11:49:20.828Z,0.73
2022-11-21T11:52:07.107Z,1.13
2022-11-21T11:54:43.796Z,0.82
2022-11-21T11:57:13.369Z,1.13
2022-11-21T11:59:47.069Z,0.88
2022-11-21T12:05:11.529Z,0.85
2022-11-21T12:11:01.167Z,1.00
2022-11-21T12:13:31.146Z,1.00
2022-11-21T12:16:10.256Z,1.25
2022-11-21T12:18:58.963Z,3.38
2022-11-21T12:21:27.971Z,4.50
2022-11-21T12:23:58.905Z,5.60
2022-11-21T12:26:28.291Z,1.20
2022-11-21T12:29:32.180Z,1.30
2022-11-21T12:32:07.630Z,1.02
2022-11-21T12:34:43.421Z,0.90
2022-11-21T12:37:34.766Z,0.77
2022-11-21T12:40:35.297Z,1.05
2022-11-21T12:43:29.577Z,1.13
2022-11-21T12:46:27.867Z,1.35
2022-11-21T12:49:29.765Z,1.60
2022-11-21T12:52:32.284Z,1.67
2022-11-21T12:55:13.844Z,1.10
2022-11-21T12:57:59.036Z,1.42
2022-11-21T13:00:29.134Z,1.10
2022-11-21T13:03:17.490Z,1.08
2022-11-21T13:05:49.023Z,0.95
2022-11-21T13:08:24.725Z,0.98
2022-11-21T13:11:27.919Z,0.80
2022-11-21T13:14:39.265Z,0.90
2022-11-21T13:17:36.115Z,0.93
2022-11-21T13:20:06.850Z,1.05
2022-11-21T13:22:36.348Z,1.02
2022-11-21T13:25:10.128Z,0.93
2022-11-21T13:27:44.901Z,1.00
2022-11-21T13:30:15.292Z,1.10
2022-11-21T13:32:46.657Z,1.08
2022-11-21T13:35:19.355Z,1.08
2022-11-21T13:38:03.225Z,1.60
2022-11-21T13:40:32.690Z,1.90
2022-11-21T13:43:32.693Z,1.92
2022-11-21T13:46:00.528Z,1.90
2022-11-21T13:48:45.395Z,2.10
2022-11-21T13:51:32.806Z,2.20
2022-11-21T13:54:33.543Z,1.48
2022-11-21T13:57:41.464Z,1.73
2022-11-21T14:00:24.076Z,3.00
2022-11-21T14:03:05.694Z,30.50
2022-11-21T14:05:50.389Z,4.00
2022-11-21T14:08:19.215Z,2.08
2022-11-21T14:10:47.391Z,1.70
2022-11-21T14:13:47.154Z,1.98
2022-11-21T14:16:42.024Z,1.85
2022-11-21T14:19:16.923Z,2.13
2022-11-21T14:21:45.922Z,1.50
2022-11-21T14:24:17.542Z,1.27
2022-11-21T14:26:48.059Z,1.08
2022-11-21T14:29:28.446Z,1.17
2022-11-21T14:31:55.994Z,1.10
2022-11-21T14:34:27.059Z,1.00
2022-11-21T14:36:57.854Z,1.30
2022-11-21T14:39:40.935Z,1.10
2022-11-21T14:42:15.782Z,1.58
2022-11-21T14:44:43.046Z,1.23
2022-11-21T14:47:26.342Z,1.05
2022-11-21T14:49:55.552Z,1.20
2022-11-21T14:52:29.564Z,1.35
2022-11-21T14:57:46.118Z,1.10
2022-11-21T15:03:21.717Z,1.35
2022-11-21T15:06:06.744Z,1.10
2022-11-21T15:09:46.021Z,1.40
2022-11-21T15:11:25.485Z,1.25
2022-11-21T15:14:15.515Z,1.55
2022-11-21T15:16:48.121Z,1.98
2022-11-21T15:19:32.755Z,3.67
2022-11-21T15:22:04.475Z,2.60
2022-11-21T15:24:34.009Z,2.42
2022-11-21T15:27:26.310Z,2.60
2022-11-21T15:30:06.156Z,2.45
2022-11-21T15:32:58.224Z,3.20
2022-11-21T15:35:57.013Z,3.83
2022-11-21T15:38:31.822Z,2.88
2022-11-21T15:41:18.720Z,2.40
2022-11-21T15:43:57.201Z,2.28
2022-11-21T15:46:25.303Z,1.50
2022-11-21T15:48:53.409Z,1.70
2022-11-21T15:51:51.486Z,2.03
2022-11-21T15:54:15.475Z,3.17
2022-11-21T15:56:42.364Z,3.20
2022-11-21T15:59:10.307Z,3.92
2022-11-21T16:01:37.678Z,4.40
2022-11-21T16:04:06.719Z,3.38
2022-11-21T16:06:35.769Z,22.52
2022-11-21T16:09:03.704Z,25.65
2022-11-21T16:11:33.410Z,16.92
2022-11-21T16:14:02.237Z,15.65
2022-11-21T16:16:34.112Z,8.07
2022-11-21T16:19:03.575Z,8.43
2022-11-21T16:21:30.038Z,12.98
2022-11-21T16:23:58.423Z,13.57
2022-11-21T16:26:28.924Z,11.70
2022-11-21T16:28:56.575Z,7.85
2022-11-21T16:31:30.616Z,4.88
2022-11-21T16:33:58.601Z,4.78
2022-11-21T16:36:30.038Z,4.90
2022-11-21T16:39:07.704Z,4.00
2022-11-21T16:41:39.474Z,4.80
2022-11-21T16:44:13.045Z,5.22
2022-11-21T16:46:44.935Z,5.47
2022-11-21T16:49:11.604Z,5.32
2022-11-21T16:51:38.190Z,13.23
2022-11-21T16:54:08.887Z,15.38
2022-11-21T16:56:36.176Z,13.80
2022-11-21T16:59:03.183Z,7.68
2022-11-21T17:01:30.032Z,11.20
2022-11-21T17:03:56.794Z,9.65
2022-11-21T17:06:28.896Z,8.88
2022-11-21T17:08:55.730Z,14.85
2022-11-21T17:11:28.142Z,8.63
2022-11-21T17:13:55.885Z,17.45
2022-11-21T17:16:25.877Z,22.95
2022-11-21T17:18:56.073Z,16.55
2022-11-21T17:21:23.596Z,7.40
2022-11-21T17:23:50.877Z,3.42
2022-11-21T17:26:23.407Z,2.55
2022-11-21T17:29:00.993Z,3.53
2022-11-21T17:31:27.887Z,4.70
2022-11-21T17:33:57.180Z,4.15
2022-11-21T17:36:26.219Z,3.65
2022-11-21T17:38:55.525Z,7.50
2022-11-21T17:41:24.049Z,7.18
2022-11-21T17:43:54.347Z,5.18
2022-11-21T17:46:25.216Z,3.78
2022-11-21T17:48:55.543Z,4.00
2022-11-21T17:51:27.615Z,5.65
2022-11-21T17:53:54.198Z,8.38
2022-11-21T17:56:23.137Z,12.32
2022-11-21T17:58:51.235Z,18.45
2022-11-21T18:01:21.997Z,17.98
2022-11-21T18:03:57.222Z,16.63
2022-11-21T18:06:24.774Z,16.52
2022-11-21T18:08:51.708Z,22.73
2022-11-21T18:11:23.505Z,27.25
2022-11-21T18:13:52.804Z,24.08
2022-11-21T18:16:21.965Z,15.20
2022-11-21T18:18:51.831Z,15.00
2022-11-21T18:21:23.401Z,14.27
2022-11-21T18:23:52.107Z,11.85
2022-11-21T18:26:22.856Z,12.07
2022-11-21T18:29:01.817Z,11.25
2022-11-21T18:31:40.432Z,12.00
2022-11-21T18:34:06.919Z,11.55
2022-11-21T18:36:33.765Z,11.82
2022-11-21T18:39:08.933Z,7.85
2022-11-21T18:41:40.069Z,5.65
2022-11-21T18:44:07.379Z,6.10
2022-11-21T18:46:36.275Z,2.95
2022-11-21T18:49:06.302Z,3.33
2022-11-21T18:51:34.183Z,3.20
2022-11-21T18:54:08.310Z,3.20
2022-11-21T18:56:36.552Z,1.90
2022-11-21T18:59:05.858Z,1.48
2022-11-21T19:01:33.478Z,3.45
2022-11-21T19:04:00.003Z,7.10
2022-11-21T19:06:27.329Z,11.75
2022-11-21T19:08:55.985Z,16.63
2022-11-21T19:11:27.070Z,18.02
2022-11-21T19:13:55.114Z,13.30
2022-11-21T19:16:24.659Z,11.05
2022-11-21T19:19:18.712Z,10.32
2022-11-21T19:21:39.793Z,10.05
2022-11-21T19:24:07.342Z,10.90
2022-11-21T19:26:33.953Z,11.85
2022-11-21T19:29:00.508Z,10.93
2022-11-21T19:31:29.905Z,9.23
2022-11-21T19:33:56.467Z,9.45
2022-11-21T19:36:23.835Z,8.70
2022-11-21T19:38:51.774Z,9.95
2022-11-21T19:41:25.836Z,10.55
2022-11-21T19:43:54.806Z,13.05
2022-11-21T19:46:24.435Z,12.80
2022-11-21T19:48:52.985Z,10.75
2022-11-21T19:51:21.030Z,9.43
2022-11-21T19:53:48.158Z,7.60
2022-11-21T19:56:17.006Z,6.63
2022-11-21T19:58:44.349Z,12.88
2022-11-21T20:01:19.179Z,12.90
2022-11-21T20:03:47.877Z,22.27
2022-11-21T20:06:21.032Z,22.33
2022-11-21T20:08:56.032Z,13.40
2022-11-21T20:11:24.457Z,8.02
2022-11-21T20:13:53.567Z,6.88
2022-11-21T20:16:33.568Z,7.20
2022-11-21T20:19:02.358Z,9.60
2022-11-21T20:21:29.719Z,9.23
2022-11-21T20:23:59.150Z,18.60
2022-11-21T20:26:26.491Z,25.25
2022-11-21T20:28:55.712Z,33.70
2022-11-21T20:31:24.930Z,43.67
2022-11-21T20:33:53.752Z,43.90
2022-11-21T20:36:23.354Z,30.13
2022-11-21T20:38:50.975Z,35.97
2022-11-21T20:41:24.761Z,23.13
2022-11-21T20:46:47.434Z,9.63
2022-11-21T20:49:14.142Z,8.07
2022-11-21T20:54:28.125Z,13.80
2022-11-21T20:56:54.854Z,14.18
2022-11-21T20:59:21.669Z,14.52
2022-11-21T21:01:48.189Z,8.57
2022-11-21T21:04:14.840Z,10.98
2022-11-21T21:06:41.260Z,13.50
2022-11-21T21:09:10.447Z,33.90
2022-11-21T21:11:54.898Z,45.10
2022-11-21T21:14:22.436Z,40.72
2022-11-21T21:16:49.736Z,25.20
2022-11-21T21:19:16.314Z,44.88
2022-11-21T21:21:42.874Z,16.17
2022-11-21T21:24:11.224Z,45.63
2022-11-21T21:26:43.886Z,52.72
2022-11-21T21:29:17.188Z,27.35
2022-11-21T21:31:50.573Z,21.95
2022-11-21T21:34:19.483Z,11.40
2022-11-21T21:36:46.071Z,9.80
2022-11-21T21:39:12.823Z,75.50
2022-11-21T21:41:46.027Z,61.80
2022-11-21T21:44:13.057Z,41.13
2022-11-21T21:46:39.528Z,30.38
2022-11-21T21:49:05.987Z,16.20
2022-11-21T21:51:32.687Z,8.02
2022-11-21T21:54:00.036Z,7.22
2022-11-21T21:56:28.757Z,7.43
2022-11-21T21:58:57.206Z,6.10
2022-11-21T22:01:26.643Z,4.90
2022-11-21T22:03:59.702Z,4.90
2022-11-21T22:06:26.678Z,4.80
2022-11-21T22:08:54.211Z,4.50
2022-11-21T22:11:25.889Z,5.00
2022-11-21T22:13:55.373Z,5.60
2022-11-21T22:16:22.165Z,9.82
2022-11-21T22:18:48.593Z,4.97
2022-11-21T22:21:27.958Z,4.40
2022-11-21T22:26:45.939Z,5.45
2022-11-21T22:29:12.450Z,5.53
2022-11-21T22:31:38.923Z,6.15
2022-11-21T22:34:07.766Z,6.30
2022-11-21T22:36:34.198Z,6.32
2022-11-21T22:39:00.799Z,8.73
2022-11-21T22:41:29.516Z,6.60
2022-11-21T22:43:59.430Z,5.40
2022-11-21T22:46:28.285Z,7.88
2022-11-21T22:48:55.218Z,5.97
2022-11-21T22:51:23.989Z,6.63
2022-11-21T22:53:51.343Z,6.50
2022-11-21T22:56:22.029Z,5.32
2022-11-21T22:58:49.198Z,5.25
2022-11-21T23:01:24.175Z,4.70
2022-11-21T23:03:51.125Z,4.82
2022-11-21T23:06:26.413Z,8.52
2022-11-21T23:08:57.027Z,5.30
2022-11-21T23:11:29.188Z,5.10
2022-11-21T23:13:58.183Z,4.47
2022-11-21T23:16:27.245Z,4.60
2022-11-21T23:18:54.668Z,5.20
2022-11-21T23:21:21.548Z,5.22
2022-11-21T23:23:50.272Z,5.25
2022-11-21T23:26:16.929Z,5.07
2022-11-21T23:28:43.442Z,5.38
2022-11-21T23:31:10.414Z,5.25
2022-11-21T23:33:36.896Z,4.95
2022-11-21T23:36:03.439Z,5.90
2022-11-21T23:38:30.062Z,5.20
2022-11-21T23:40:56.530Z,6.03
2022-11-21T23:43:22.971Z,6.47
2022-11-21T23:45:53.621Z,5.47
2022-11-21T23:48:20.864Z,4.93
2022-11-21T23:50:48.117Z,5.22
2022-11-21T23:53:16.858Z,4.88
2022-11-21T23:55:44.088Z,5.30
2022-11-21T23:58:13.286Z,5.28
